sensor_id;sensor_type;location;lat;lon;timestamp;temperature;humidity
25877;DHT22;13692;47.480;19.216;2023-05-15T00:02:11;12.80;99.90
25877;DHT22;13692;47.480;19.216;2023-05-15T00:04:38;12.80;99.90
25877;DHT22;13692;47.480;19.216;2023-05-15T00:07:05;12.80;99.90
25877;DHT22;13692;47.480;19.216;2023-05-15T00:09:32;12.80;99.90
25877;DHT22;13692;47.480;19.216;2023-05-15T00:11:59;12.80;99.90
25877;DHT22;13692;47.480;19.216;2023-05-15T00:14:26;12.80;99.90
25877;DHT22;13692;47.480;19.216;2023-05-15T00:16:53;12.80;99.90
25877;DHT22;13692;47.480;19.216;2023-05-15T00:19:20;12.80;99.90
25877;DHT22;13692;47.480;19.216;2023-05-15T00:21:48;12.80;99.90
25877;DHT22;13692;47.480;19.216;2023-05-15T00:24:14;12.80;99.90
25877;DHT22;13692;47.480;19.216;2023-05-15T00:26:42;12.80;99.90
25877;DHT22;13692;47.480;19.216;2023-05-15T00:29:09;12.80;99.90
25877;DHT22;13692;47.480;19.216;2023-05-15T00:31:36;12.80;99.90
25877;DHT22;13692;47.480;19.216;2023-05-15T00:34:03;12.80;99.90
25877;DHT22;13692;47.480;19.216;2023-05-15T00:36:30;12.80;99.90
25877;DHT22;13692;47.480;19.216;2023-05-15T00:38:56;12.90;99.90
25877;DHT22;13692;47.480;19.216;2023-05-15T00:41:24;12.90;99.90
25877;DHT22;13692;47.480;19.216;2023-05-15T00:43:55;12.90;99.90
25877;DHT22;13692;47.480;19.216;2023-05-15T00:46:23;12.90;99.90
25877;DHT22;13692;47.480;19.216;2023-05-15T00:48:52;12.90;99.90
25877;DHT22;13692;47.480;19.216;2023-05-15T00:51:20;12.90;99.90
25877;DHT22;13692;47.480;19.216;2023-05-15T00:53:46;12.90;99.90
25877;DHT22;13692;47.480;19.216;2023-05-15T00:56:16;12.90;99.90
25877;DHT22;13692;47.480;19.216;2023-05-15T00:58:45;12.90;99.90
25877;DHT22;13692;47.480;19.216;2023-05-15T01:01:15;12.90;99.90
25877;DHT22;13692;47.480;19.216;2023-05-15T01:03:42;12.80;99.90
25877;DHT22;13692;47.480;19.216;2023-05-15T01:06:10;12.90;99.90
25877;DHT22;13692;47.480;19.216;2023-05-15T01:08:46;12.90;99.90
25877;DHT22;13692;47.480;19.216;2023-05-15T01:11:14;12.90;99.90
25877;DHT22;13692;47.480;19.216;2023-05-15T01:13:42;12.90;99.90
25877;DHT22;13692;47.480;19.216;2023-05-15T01:16:09;12.80;99.90
25877;DHT22;13692;47.480;19.216;2023-05-15T01:18:36;12.80;99.90
25877;DHT22;13692;47.480;19.216;2023-05-15T01:21:16;12.80;99.90
25877;DHT22;13692;47.480;19.216;2023-05-15T01:24:37;12.90;99.90
25877;DHT22;13692;47.480;19.216;2023-05-15T01:27:44;12.80;99.90
25877;DHT22;13692;47.480;19.216;2023-05-15T01:30:27;12.80;99.90
25877;DHT22;13692;47.480;19.216;2023-05-15T01:40:47;12.90;99.90
25877;DHT22;13692;47.480;19.216;2023-05-15T01:43:18;12.90;99.90
25877;DHT22;13692;47.480;19.216;2023-05-15T01:45:47;12.90;99.90
25877;DHT22;13692;47.480;19.216;2023-05-15T01:48:15;12.90;99.90
25877;DHT22;13692;47.480;19.216;2023-05-15T01:50:44;12.90;99.90
25877;DHT22;13692;47.480;19.216;2023-05-15T01:53:14;12.90;99.90
25877;DHT22;13692;47.480;19.216;2023-05-15T01:55:42;12.90;99.90
25877;DHT22;13692;47.480;19.216;2023-05-15T01:58:10;12.90;99.90
25877;DHT22;13692;47.480;19.216;2023-05-15T02:00:37;12.90;99.90
25877;DHT22;13692;47.480;19.216;2023-05-15T02:03:05;12.80;99.90
25877;DHT22;13692;47.480;19.216;2023-05-15T02:05:33;12.80;99.90
25877;DHT22;13692;47.480;19.216;2023-05-15T02:08:02;12.80;99.90
25877;DHT22;13692;47.480;19.216;2023-05-15T02:10:31;12.80;99.90
25877;DHT22;13692;47.480;19.216;2023-05-15T02:12:59;12.80;99.90
25877;DHT22;13692;47.480;19.216;2023-05-15T02:15:28;12.80;99.90
25877;DHT22;13692;47.480;19.216;2023-05-15T02:17:55;12.80;99.90
25877;DHT22;13692;47.480;19.216;2023-05-15T02:20:22;12.80;99.90
25877;DHT22;13692;47.480;19.216;2023-05-15T02:22:49;12.80;99.90
25877;DHT22;13692;47.480;19.216;2023-05-15T02:25:16;12.80;99.90
25877;DHT22;13692;47.480;19.216;2023-05-15T02:27:57;12.80;99.90
25877;DHT22;13692;47.480;19.216;2023-05-15T02:30:41;12.80;99.90
25877;DHT22;13692;47.480;19.216;2023-05-15T02:33:40;12.90;99.90
25877;DHT22;13692;47.480;19.216;2023-05-15T02:36:11;12.90;99.90
25877;DHT22;13692;47.480;19.216;2023-05-15T02:38:52;12.90;99.90
25877;DHT22;13692;47.480;19.216;2023-05-15T02:41:20;12.90;99.90
25877;DHT22;13692;47.480;19.216;2023-05-15T02:43:50;12.90;99.90
25877;DHT22;13692;47.480;19.216;2023-05-15T02:46:18;13.00;99.90
25877;DHT22;13692;47.480;19.216;2023-05-15T02:48:47;12.90;99.90
25877;DHT22;13692;47.480;19.216;2023-05-15T02:51:14;12.90;99.90
25877;DHT22;13692;47.480;19.216;2023-05-15T02:53:42;13.00;99.90
25877;DHT22;13692;47.480;19.216;2023-05-15T02:56:09;13.00;99.90
25877;DHT22;13692;47.480;19.216;2023-05-15T02:58:37;13.00;99.90
25877;DHT22;13692;47.480;19.216;2023-05-15T03:01:04;13.00;99.90
25877;DHT22;13692;47.480;19.216;2023-05-15T03:03:32;13.00;99.90
25877;DHT22;13692;47.480;19.216;2023-05-15T03:05:59;13.10;99.90
25877;DHT22;13692;47.480;19.216;2023-05-15T03:08:26;13.00;99.90
25877;DHT22;13692;47.480;19.216;2023-05-15T03:10:53;13.00;99.90
25877;DHT22;13692;47.480;19.216;2023-05-15T03:13:20;13.00;99.90
25877;DHT22;13692;47.480;19.216;2023-05-15T03:15:47;13.00;99.90
25877;DHT22;13692;47.480;19.216;2023-05-15T03:18:14;13.00;99.90
25877;DHT22;13692;47.480;19.216;2023-05-15T03:20:45;13.00;99.90
25877;DHT22;13692;47.480;19.216;2023-05-15T03:23:13;13.00;99.90
25877;DHT22;13692;47.480;19.216;2023-05-15T03:25:39;13.00;99.90
25877;DHT22;13692;47.480;19.216;2023-05-15T03:28:06;13.00;99.90
25877;DHT22;13692;47.480;19.216;2023-05-15T03:30:33;13.00;99.90
25877;DHT22;13692;47.480;19.216;2023-05-15T03:33:00;13.00;99.90
25877;DHT22;13692;47.480;19.216;2023-05-15T03:35:30;13.10;99.90
25877;DHT22;13692;47.480;19.216;2023-05-15T03:37:58;13.00;99.90
25877;DHT22;13692;47.480;19.216;2023-05-15T03:40:25;13.00;99.90
25877;DHT22;13692;47.480;19.216;2023-05-15T03:42:51;13.10;99.90
25877;DHT22;13692;47.480;19.216;2023-05-15T03:45:19;13.10;99.90
25877;DHT22;13692;47.480;19.216;2023-05-15T03:47:47;13.00;99.90
25877;DHT22;13692;47.480;19.216;2023-05-15T03:50:14;13.00;99.90
25877;DHT22;13692;47.480;19.216;2023-05-15T03:52:41;13.10;99.90
25877;DHT22;13692;47.480;19.216;2023-05-15T03:55:08;13.10;99.90
25877;DHT22;13692;47.480;19.216;2023-05-15T03:57:35;13.10;99.90
25877;DHT22;13692;47.480;19.216;2023-05-15T04:00:02;13.00;99.90
25877;DHT22;13692;47.480;19.216;2023-05-15T04:02:36;13.10;99.90
25877;DHT22;13692;47.480;19.216;2023-05-15T04:05:04;13.10;99.90
25877;DHT22;13692;47.480;19.216;2023-05-15T04:07:32;13.10;99.90
25877;DHT22;13692;47.480;19.216;2023-05-15T04:09:59;13.10;99.90
25877;DHT22;13692;47.480;19.216;2023-05-15T04:12:34;13.10;99.90
25877;DHT22;13692;47.480;19.216;2023-05-15T04:17:51;13.20;99.90
25877;DHT22;13692;47.480;19.216;2023-05-15T04:20:21;13.30;99.90
25877;DHT22;13692;47.480;19.216;2023-05-15T04:22:48;13.30;99.90
25877;DHT22;13692;47.480;19.216;2023-05-15T04:25:16;13.30;99.90
25877;DHT22;13692;47.480;19.216;2023-05-15T04:27:44;13.30;99.90
25877;DHT22;13692;47.480;19.216;2023-05-15T04:30:11;13.30;99.90
25877;DHT22;13692;47.480;19.216;2023-05-15T04:32:39;13.30;99.90
25877;DHT22;13692;47.480;19.216;2023-05-15T04:35:07;13.30;99.90
25877;DHT22;13692;47.480;19.216;2023-05-15T04:37:36;13.30;99.90
25877;DHT22;13692;47.480;19.216;2023-05-15T04:40:03;13.40;99.90
25877;DHT22;13692;47.480;19.216;2023-05-15T04:42:32;13.50;99.90
25877;DHT22;13692;47.480;19.216;2023-05-15T04:45:00;13.50;99.90
25877;DHT22;13692;47.480;19.216;2023-05-15T04:47:27;13.50;99.90
25877;DHT22;13692;47.480;19.216;2023-05-15T04:49:54;13.60;99.90
25877;DHT22;13692;47.480;19.216;2023-05-15T04:52:21;13.60;99.90
25877;DHT22;13692;47.480;19.216;2023-05-15T04:54:48;13.60;99.90
25877;DHT22;13692;47.480;19.216;2023-05-15T04:57:16;13.70;99.90
25877;DHT22;13692;47.480;19.216;2023-05-15T04:59:43;13.70;99.90
25877;DHT22;13692;47.480;19.216;2023-05-15T05:02:10;13.60;99.90
25877;DHT22;13692;47.480;19.216;2023-05-15T05:04:37;13.70;99.90
25877;DHT22;13692;47.480;19.216;2023-05-15T05:07:04;13.80;99.90
25877;DHT22;13692;47.480;19.216;2023-05-15T05:09:31;13.80;99.90
25877;DHT22;13692;47.480;19.216;2023-05-15T05:11:58;13.80;99.90
25877;DHT22;13692;47.480;19.216;2023-05-15T05:14:26;13.90;99.90
25877;DHT22;13692;47.480;19.216;2023-05-15T05:16:53;13.90;99.90
25877;DHT22;13692;47.480;19.216;2023-05-15T05:19:19;13.90;99.90
25877;DHT22;13692;47.480;19.216;2023-05-15T05:21:46;13.90;99.90
25877;DHT22;13692;47.480;19.216;2023-05-15T05:24:13;13.90;99.90
25877;DHT22;13692;47.480;19.216;2023-05-15T05:26:42;13.90;99.90
25877;DHT22;13692;47.480;19.216;2023-05-15T05:29:10;13.90;99.90
25877;DHT22;13692;47.480;19.216;2023-05-15T05:31:37;13.90;99.90
25877;DHT22;13692;47.480;19.216;2023-05-15T05:34:04;13.90;99.90
25877;DHT22;13692;47.480;19.216;2023-05-15T05:36:31;13.90;99.90
25877;DHT22;13692;47.480;19.216;2023-05-15T05:38:58;13.90;99.90
25877;DHT22;13692;47.480;19.216;2023-05-15T05:41:25;13.90;99.90
25877;DHT22;13692;47.480;19.216;2023-05-15T05:43:52;13.90;99.90
25877;DHT22;13692;47.480;19.216;2023-05-15T05:46:19;13.90;99.90
25877;DHT22;13692;47.480;19.216;2023-05-15T05:48:46;13.90;99.90
25877;DHT22;13692;47.480;19.216;2023-05-15T05:51:14;13.90;99.90
25877;DHT22;13692;47.480;19.216;2023-05-15T05:53:41;14.00;99.90
25877;DHT22;13692;47.480;19.216;2023-05-15T05:56:07;14.00;99.90
25877;DHT22;13692;47.480;19.216;2023-05-15T05:58:34;14.00;99.90
25877;DHT22;13692;47.480;19.216;2023-05-15T06:01:01;14.10;99.90
25877;DHT22;13692;47.480;19.216;2023-05-15T06:03:29;14.10;99.90
25877;DHT22;13692;47.480;19.216;2023-05-15T06:05:56;14.10;99.90
25877;DHT22;13692;47.480;19.216;2023-05-15T06:08:23;14.20;99.90
25877;DHT22;13692;47.480;19.216;2023-05-15T06:10:50;14.20;99.90
25877;DHT22;13692;47.480;19.216;2023-05-15T06:13:17;14.20;99.90
25877;DHT22;13692;47.480;19.216;2023-05-15T06:15:44;14.20;99.90
25877;DHT22;13692;47.480;19.216;2023-05-15T06:18:12;14.30;99.90
25877;DHT22;13692;47.480;19.216;2023-05-15T06:20:39;14.30;99.90
25877;DHT22;13692;47.480;19.216;2023-05-15T06:23:08;14.40;99.90
25877;DHT22;13692;47.480;19.216;2023-05-15T06:25:35;14.40;99.90
25877;DHT22;13692;47.480;19.216;2023-05-15T06:28:02;14.50;99.90
25877;DHT22;13692;47.480;19.216;2023-05-15T06:30:29;14.50;99.90
25877;DHT22;13692;47.480;19.216;2023-05-15T06:32:56;14.50;99.90
25877;DHT22;13692;47.480;19.216;2023-05-15T06:35:23;14.50;99.90
25877;DHT22;13692;47.480;19.216;2023-05-15T06:37:50;14.50;99.90
25877;DHT22;13692;47.480;19.216;2023-05-15T06:40:20;14.60;99.90
25877;DHT22;13692;47.480;19.216;2023-05-15T06:42:47;14.60;99.90
25877;DHT22;13692;47.480;19.216;2023-05-15T06:45:14;14.60;99.90
25877;DHT22;13692;47.480;19.216;2023-05-15T06:47:41;14.60;99.90
25877;DHT22;13692;47.480;19.216;2023-05-15T06:50:08;14.60;99.90
25877;DHT22;13692;47.480;19.216;2023-05-15T06:52:35;14.60;99.90
25877;DHT22;13692;47.480;19.216;2023-05-15T06:55:02;14.50;99.90
25877;DHT22;13692;47.480;19.216;2023-05-15T06:57:29;14.50;99.90
25877;DHT22;13692;47.480;19.216;2023-05-15T06:59:56;14.50;99.90
25877;DHT22;13692;47.480;19.216;2023-05-15T07:02:23;14.50;99.90
25877;DHT22;13692;47.480;19.216;2023-05-15T07:04:50;14.60;99.90
25877;DHT22;13692;47.480;19.216;2023-05-15T07:07:17;14.70;99.90
25877;DHT22;13692;47.480;19.216;2023-05-15T07:09:44;14.90;99.90
25877;DHT22;13692;47.480;19.216;2023-05-15T07:12:14;15.10;99.90
25877;DHT22;13692;47.480;19.216;2023-05-15T07:14:41;15.40;99.90
25877;DHT22;13692;47.480;19.216;2023-05-15T07:17:08;15.40;99.90
25877;DHT22;13692;47.480;19.216;2023-05-15T07:19:35;15.30;99.90
25877;DHT22;13692;47.480;19.216;2023-05-15T07:22:02;15.30;99.90
25877;DHT22;13692;47.480;19.216;2023-05-15T07:24:29;15.40;99.90
25877;DHT22;13692;47.480;19.216;2023-05-15T07:26:58;15.30;99.90
25877;DHT22;13692;47.480;19.216;2023-05-15T07:29:25;15.50;99.90
25877;DHT22;13692;47.480;19.216;2023-05-15T07:31:52;15.50;99.90
25877;DHT22;13692;47.480;19.216;2023-05-15T07:34:19;15.70;99.90
25877;DHT22;13692;47.480;19.216;2023-05-15T07:36:46;15.80;99.90
25877;DHT22;13692;47.480;19.216;2023-05-15T07:39:13;15.90;99.90
25877;DHT22;13692;47.480;19.216;2023-05-15T07:41:40;15.90;99.90
25877;DHT22;13692;47.480;19.216;2023-05-15T07:44:07;15.90;99.90
25877;DHT22;13692;47.480;19.216;2023-05-15T07:46:34;16.10;99.90
25877;DHT22;13692;47.480;19.216;2023-05-15T07:49:01;16.20;99.90
25877;DHT22;13692;47.480;19.216;2023-05-15T07:51:28;16.40;99.90
25877;DHT22;13692;47.480;19.216;2023-05-15T07:53:55;16.60;99.90
25877;DHT22;13692;47.480;19.216;2023-05-15T07:56:22;16.80;99.90
25877;DHT22;13692;47.480;19.216;2023-05-15T07:58:49;16.90;99.90
25877;DHT22;13692;47.480;19.216;2023-05-15T08:01:16;17.00;99.90
25877;DHT22;13692;47.480;19.216;2023-05-15T08:03:43;17.20;99.90
25877;DHT22;13692;47.480;19.216;2023-05-15T08:06:10;17.40;99.90
25877;DHT22;13692;47.480;19.216;2023-05-15T08:08:37;17.60;99.90
25877;DHT22;13692;47.480;19.216;2023-05-15T08:11:03;17.70;99.90
25877;DHT22;13692;47.480;19.216;2023-05-15T08:13:31;17.60;99.90
25877;DHT22;13692;47.480;19.216;2023-05-15T08:15:58;17.70;99.90
25877;DHT22;13692;47.480;19.216;2023-05-15T08:18:24;17.80;99.90
25877;DHT22;13692;47.480;19.216;2023-05-15T08:20:51;17.80;99.90
25877;DHT22;13692;47.480;19.216;2023-05-15T08:23:18;18.00;99.90
25877;DHT22;13692;47.480;19.216;2023-05-15T08:25:45;18.10;99.90
25877;DHT22;13692;47.480;19.216;2023-05-15T08:28:13;18.00;99.90
25877;DHT22;13692;47.480;19.216;2023-05-15T08:30:40;18.00;99.90
25877;DHT22;13692;47.480;19.216;2023-05-15T08:33:07;18.00;99.90
25877;DHT22;13692;47.480;19.216;2023-05-15T08:35:34;17.90;99.90
25877;DHT22;13692;47.480;19.216;2023-05-15T08:38:01;18.10;99.90
25877;DHT22;13692;47.480;19.216;2023-05-15T08:40:29;18.30;99.90
25877;DHT22;13692;47.480;19.216;2023-05-15T08:43:12;18.40;99.90
25877;DHT22;13692;47.480;19.216;2023-05-15T08:45:41;18.50;99.90
25877;DHT22;13692;47.480;19.216;2023-05-15T08:48:12;18.50;99.90
25877;DHT22;13692;47.480;19.216;2023-05-15T08:50:40;18.60;99.90
25877;DHT22;13692;47.480;19.216;2023-05-15T08:53:12;18.60;99.90
25877;DHT22;13692;47.480;19.216;2023-05-15T08:55:41;18.60;99.90
25877;DHT22;13692;47.480;19.216;2023-05-15T08:58:08;18.60;99.90
25877;DHT22;13692;47.480;19.216;2023-05-15T09:00:38;18.60;99.90
25877;DHT22;13692;47.480;19.216;2023-05-15T09:03:05;18.50;99.90
25877;DHT22;13692;47.480;19.216;2023-05-15T09:05:33;18.40;99.90
25877;DHT22;13692;47.480;19.216;2023-05-15T09:08:03;18.40;99.90
25877;DHT22;13692;47.480;19.216;2023-05-15T09:10:32;18.30;99.90
25877;DHT22;13692;47.480;19.216;2023-05-15T09:13:01;18.50;99.90
25877;DHT22;13692;47.480;19.216;2023-05-15T09:15:29;18.60;99.90
25877;DHT22;13692;47.480;19.216;2023-05-15T09:17:57;18.80;99.90
25877;DHT22;13692;47.480;19.216;2023-05-15T09:20:32;18.80;99.90
25877;DHT22;13692;47.480;19.216;2023-05-15T09:23:01;18.90;99.90
25877;DHT22;13692;47.480;19.216;2023-05-15T09:25:39;19.00;99.90
25877;DHT22;13692;47.480;19.216;2023-05-15T09:28:08;19.10;99.90
25877;DHT22;13692;47.480;19.216;2023-05-15T09:30:45;19.20;99.90
25877;DHT22;13692;47.480;19.216;2023-05-15T09:33:12;19.40;99.90
25877;DHT22;13692;47.480;19.216;2023-05-15T09:35:42;19.90;99.90
25877;DHT22;13692;47.480;19.216;2023-05-15T09:38:11;20.40;99.90
25877;DHT22;13692;47.480;19.216;2023-05-15T09:40:39;20.80;99.90
25877;DHT22;13692;47.480;19.216;2023-05-15T09:43:09;21.00;99.90
25877;DHT22;13692;47.480;19.216;2023-05-15T09:45:37;20.90;99.90
25877;DHT22;13692;47.480;19.216;2023-05-15T09:48:06;20.50;99.90
25877;DHT22;13692;47.480;19.216;2023-05-15T09:50:35;20.40;99.90
25877;DHT22;13692;47.480;19.216;2023-05-15T09:53:03;20.50;99.90
25877;DHT22;13692;47.480;19.216;2023-05-15T09:55:31;20.80;99.90
25877;DHT22;13692;47.480;19.216;2023-05-15T09:58:09;20.80;99.90
25877;DHT22;13692;47.480;19.216;2023-05-15T10:00:37;20.70;99.90
25877;DHT22;13692;47.480;19.216;2023-05-15T10:03:16;20.80;99.90
25877;DHT22;13692;47.480;19.216;2023-05-15T10:05:43;20.60;99.90
25877;DHT22;13692;47.480;19.216;2023-05-15T10:08:11;20.50;99.90
25877;DHT22;13692;47.480;19.216;2023-05-15T10:10:38;20.50;99.90
25877;DHT22;13692;47.480;19.216;2023-05-15T10:13:06;20.50;99.90
25877;DHT22;13692;47.480;19.216;2023-05-15T10:15:35;20.40;99.90
25877;DHT22;13692;47.480;19.216;2023-05-15T10:18:03;20.50;99.90
25877;DHT22;13692;47.480;19.216;2023-05-15T10:20:32;20.60;99.90
25877;DHT22;13692;47.480;19.216;2023-05-15T10:23:03;20.60;99.90
25877;DHT22;13692;47.480;19.216;2023-05-15T10:25:56;20.40;99.90
25877;DHT22;13692;47.480;19.216;2023-05-15T10:28:25;20.10;99.90
25877;DHT22;13692;47.480;19.216;2023-05-15T10:30:53;20.10;99.90
25877;DHT22;13692;47.480;19.216;2023-05-15T10:33:22;20.20;99.90
25877;DHT22;13692;47.480;19.216;2023-05-15T10:35:49;20.30;99.90
25877;DHT22;13692;47.480;19.216;2023-05-15T10:38:18;20.20;99.90
25877;DHT22;13692;47.480;19.216;2023-05-15T10:40:46;20.20;99.90
25877;DHT22;13692;47.480;19.216;2023-05-15T10:43:14;20.30;99.90
25877;DHT22;13692;47.480;19.216;2023-05-15T10:45:41;20.20;99.90
25877;DHT22;13692;47.480;19.216;2023-05-15T10:48:09;20.20;99.90
25877;DHT22;13692;47.480;19.216;2023-05-15T10:50:38;20.10;99.90
25877;DHT22;13692;47.480;19.216;2023-05-15T10:53:05;20.00;99.90
25877;DHT22;13692;47.480;19.216;2023-05-15T10:55:32;19.80;99.90
25877;DHT22;13692;47.480;19.216;2023-05-15T10:57:59;19.60;99.90
25877;DHT22;13692;47.480;19.216;2023-05-15T11:00:27;19.60;99.90
25877;DHT22;13692;47.480;19.216;2023-05-15T11:02:56;19.50;99.90
25877;DHT22;13692;47.480;19.216;2023-05-15T11:05:24;19.40;99.90
25877;DHT22;13692;47.480;19.216;2023-05-15T11:10:40;19.10;99.90
25877;DHT22;13692;47.480;19.216;2023-05-15T11:13:07;19.00;99.90
25877;DHT22;13692;47.480;19.216;2023-05-15T11:15:45;18.90;99.90
25877;DHT22;13692;47.480;19.216;2023-05-15T11:18:13;18.80;99.90
25877;DHT22;13692;47.480;19.216;2023-05-15T11:23:20;18.70;99.90
25877;DHT22;13692;47.480;19.216;2023-05-15T11:25:57;18.80;99.90
25877;DHT22;13692;47.480;19.216;2023-05-15T11:28:27;18.80;99.90
25877;DHT22;13692;47.480;19.216;2023-05-15T11:31:05;18.80;99.90
25877;DHT22;13692;47.480;19.216;2023-05-15T11:33:32;18.80;99.90
25877;DHT22;13692;47.480;19.216;2023-05-15T11:36:00;18.80;99.90
25877;DHT22;13692;47.480;19.216;2023-05-15T11:38:36;18.90;99.90
25877;DHT22;13692;47.480;19.216;2023-05-15T11:41:17;19.00;99.90
25877;DHT22;13692;47.480;19.216;2023-05-15T11:43:44;19.10;99.90
25877;DHT22;13692;47.480;19.216;2023-05-15T11:46:12;19.40;99.90
25877;DHT22;13692;47.480;19.216;2023-05-15T11:48:45;19.80;99.90
25877;DHT22;13692;47.480;19.216;2023-05-15T11:51:16;19.90;99.90
25877;DHT22;13692;47.480;19.216;2023-05-15T11:53:44;20.10;99.90
25877;DHT22;13692;47.480;19.216;2023-05-15T11:56:22;20.30;99.90
25877;DHT22;13692;47.480;19.216;2023-05-15T11:58:51;20.20;99.90
25877;DHT22;13692;47.480;19.216;2023-05-15T12:01:18;20.10;99.90
25877;DHT22;13692;47.480;19.216;2023-05-15T12:03:49;20.10;99.90
25877;DHT22;13692;47.480;19.216;2023-05-15T12:06:17;20.00;99.90
25877;DHT22;13692;47.480;19.216;2023-05-15T12:08:50;20.10;99.90
25877;DHT22;13692;47.480;19.216;2023-05-15T12:11:21;20.10;99.90
25877;DHT22;13692;47.480;19.216;2023-05-15T12:13:53;20.00;99.90
25877;DHT22;13692;47.480;19.216;2023-05-15T12:16:27;20.10;99.90
25877;DHT22;13692;47.480;19.216;2023-05-15T12:18:57;20.00;99.90
25877;DHT22;13692;47.480;19.216;2023-05-15T12:21:26;20.00;99.90
25877;DHT22;13692;47.480;19.216;2023-05-15T12:23:53;19.90;99.90
25877;DHT22;13692;47.480;19.216;2023-05-15T12:26:34;20.10;99.90
25877;DHT22;13692;47.480;19.216;2023-05-15T12:29:02;20.20;99.90
25877;DHT22;13692;47.480;19.216;2023-05-15T12:31:30;20.20;99.90
25877;DHT22;13692;47.480;19.216;2023-05-15T12:33:57;20.20;99.90
25877;DHT22;13692;47.480;19.216;2023-05-15T12:36:26;20.20;99.90
25877;DHT22;13692;47.480;19.216;2023-05-15T12:38:56;20.10;99.90
25877;DHT22;13692;47.480;19.216;2023-05-15T12:41:27;20.20;99.90
25877;DHT22;13692;47.480;19.216;2023-05-15T12:43:57;20.20;99.90
25877;DHT22;13692;47.480;19.216;2023-05-15T12:46:27;20.30;99.90
25877;DHT22;13692;47.480;19.216;2023-05-15T12:48:57;20.40;99.90
25877;DHT22;13692;47.480;19.216;2023-05-15T12:51:25;20.50;99.90
25877;DHT22;13692;47.480;19.216;2023-05-15T12:53:52;20.40;99.90
25877;DHT22;13692;47.480;19.216;2023-05-15T12:56:19;20.20;99.90
25877;DHT22;13692;47.480;19.216;2023-05-15T12:58:47;20.00;99.90
25877;DHT22;13692;47.480;19.216;2023-05-15T13:01:14;19.90;99.90
25877;DHT22;13692;47.480;19.216;2023-05-15T13:03:42;19.80;99.90
25877;DHT22;13692;47.480;19.216;2023-05-15T13:06:10;19.80;99.90
25877;DHT22;13692;47.480;19.216;2023-05-15T13:08:40;19.80;99.90
25877;DHT22;13692;47.480;19.216;2023-05-15T13:11:11;19.80;99.90
25877;DHT22;13692;47.480;19.216;2023-05-15T13:13:45;19.90;99.90
25877;DHT22;13692;47.480;19.216;2023-05-15T13:16:24;20.00;99.90
25877;DHT22;13692;47.480;19.216;2023-05-15T13:18:52;20.00;99.90
25877;DHT22;13692;47.480;19.216;2023-05-15T13:21:19;20.00;99.90
25877;DHT22;13692;47.480;19.216;2023-05-15T13:23:46;19.90;99.90
25877;DHT22;13692;47.480;19.216;2023-05-15T13:26:13;19.90;99.90
25877;DHT22;13692;47.480;19.216;2023-05-15T13:28:40;19.80;99.90
25877;DHT22;13692;47.480;19.216;2023-05-15T13:31:07;19.70;99.90
25877;DHT22;13692;47.480;19.216;2023-05-15T13:33:34;19.60;99.90
25877;DHT22;13692;47.480;19.216;2023-05-15T13:36:01;19.50;99.90
25877;DHT22;13692;47.480;19.216;2023-05-15T13:38:28;19.50;99.90
25877;DHT22;13692;47.480;19.216;2023-05-15T13:40:55;19.60;99.90
25877;DHT22;13692;47.480;19.216;2023-05-15T13:43:22;19.50;99.90
25877;DHT22;13692;47.480;19.216;2023-05-15T13:45:52;19.40;99.90
25877;DHT22;13692;47.480;19.216;2023-05-15T13:48:18;19.40;99.90
25877;DHT22;13692;47.480;19.216;2023-05-15T13:50:45;19.50;99.90
25877;DHT22;13692;47.480;19.216;2023-05-15T13:53:13;19.50;99.90
25877;DHT22;13692;47.480;19.216;2023-05-15T13:55:43;19.60;99.90
25877;DHT22;13692;47.480;19.216;2023-05-15T13:58:12;19.60;99.90
25877;DHT22;13692;47.480;19.216;2023-05-15T14:00:41;19.60;99.90
25877;DHT22;13692;47.480;19.216;2023-05-15T14:03:09;19.50;99.90
25877;DHT22;13692;47.480;19.216;2023-05-15T14:05:39;19.50;99.90
25877;DHT22;13692;47.480;19.216;2023-05-15T14:08:06;19.50;99.90
25877;DHT22;13692;47.480;19.216;2023-05-15T14:10:35;19.50;99.90
25877;DHT22;13692;47.480;19.216;2023-05-15T14:13:02;19.40;99.90
25877;DHT22;13692;47.480;19.216;2023-05-15T14:15:29;19.40;99.90
25877;DHT22;13692;47.480;19.216;2023-05-15T14:17:56;19.40;99.90
25877;DHT22;13692;47.480;19.216;2023-05-15T14:20:23;19.30;99.90
25877;DHT22;13692;47.480;19.216;2023-05-15T14:22:50;19.20;99.90
25877;DHT22;13692;47.480;19.216;2023-05-15T14:25:17;19.20;99.90
25877;DHT22;13692;47.480;19.216;2023-05-15T14:27:44;19.10;99.90
25877;DHT22;13692;47.480;19.216;2023-05-15T14:30:11;19.00;99.90
25877;DHT22;13692;47.480;19.216;2023-05-15T14:32:39;18.80;99.90
25877;DHT22;13692;47.480;19.216;2023-05-15T14:35:07;18.70;99.90
25877;DHT22;13692;47.480;19.216;2023-05-15T14:37:34;18.70;99.90
25877;DHT22;13692;47.480;19.216;2023-05-15T14:40:01;18.60;99.90
25877;DHT22;13692;47.480;19.216;2023-05-15T14:42:30;18.60;99.90
25877;DHT22;13692;47.480;19.216;2023-05-15T14:44:57;18.60;99.90
25877;DHT22;13692;47.480;19.216;2023-05-15T14:47:24;18.60;99.90
25877;DHT22;13692;47.480;19.216;2023-05-15T14:49:54;18.50;99.90
25877;DHT22;13692;47.480;19.216;2023-05-15T14:52:21;18.50;99.90
25877;DHT22;13692;47.480;19.216;2023-05-15T14:54:48;18.50;99.90
25877;DHT22;13692;47.480;19.216;2023-05-15T14:57:33;18.60;99.90
25877;DHT22;13692;47.480;19.216;2023-05-15T15:00:00;18.60;99.90
25877;DHT22;13692;47.480;19.216;2023-05-15T15:02:27;18.60;99.90
25877;DHT22;13692;47.480;19.216;2023-05-15T15:04:54;18.60;99.90
25877;DHT22;13692;47.480;19.216;2023-05-15T15:07:26;18.60;99.90
25877;DHT22;13692;47.480;19.216;2023-05-15T15:09:52;18.50;99.90
25877;DHT22;13692;47.480;19.216;2023-05-15T15:12:20;18.60;99.90
25877;DHT22;13692;47.480;19.216;2023-05-15T15:14:46;18.60;99.90
25877;DHT22;13692;47.480;19.216;2023-05-15T15:17:13;18.60;99.90
25877;DHT22;13692;47.480;19.216;2023-05-15T15:19:40;18.60;99.90
25877;DHT22;13692;47.480;19.216;2023-05-15T15:22:07;18.60;99.90
25877;DHT22;13692;47.480;19.216;2023-05-15T15:24:34;18.60;99.90
25877;DHT22;13692;47.480;19.216;2023-05-15T15:27:01;18.60;99.90
25877;DHT22;13692;47.480;19.216;2023-05-15T15:29:28;18.60;99.90
25877;DHT22;13692;47.480;19.216;2023-05-15T15:31:55;18.60;99.90
25877;DHT22;13692;47.480;19.216;2023-05-15T15:34:21;18.60;99.90
25877;DHT22;13692;47.480;19.216;2023-05-15T15:36:48;18.50;99.90
25877;DHT22;13692;47.480;19.216;2023-05-15T15:39:15;18.50;99.90
25877;DHT22;13692;47.480;19.216;2023-05-15T15:41:42;18.50;99.90